sensor_id;sensor_type;location;lat;lon;timestamp;P1;durP1;ratioP1;P2;durP2;ratioP2
51244;SDS011;37840;47.562;18.738;2023-09-19T00:00:30;8.43;;;5.55;;
51244;SDS011;37840;47.562;18.738;2023-09-19T00:02:57;9.35;;;5.35;;
51244;SDS011;37840;47.562;18.738;2023-09-19T00:05:33;5.93;;;5.00;;
51244;SDS011;37840;47.562;18.738;2023-09-19T00:08:00;10.90;;;5.40;;
51244;SDS011;37840;47.562;18.738;2023-09-19T00:10:31;8.05;;;4.43;;
51244;SDS011;37840;47.562;18.738;2023-09-19T00:13:00;6.30;;;5.20;;
51244;SDS011;37840;47.562;18.738;2023-09-19T00:18:01;9.07;;;6.10;;
51244;SDS011;37840;47.562;18.738;2023-09-19T00:20:27;6.28;;;4.55;;
51244;SDS011;37840;47.562;18.738;2023-09-19T00:22:55;5.72;;;4.43;;
51244;SDS011;37840;47.562;18.738;2023-09-19T00:25:21;7.62;;;4.72;;
51244;SDS011;37840;47.562;18.738;2023-09-19T00:27:47;6.43;;;5.00;;
51244;SDS011;37840;47.562;18.738;2023-09-19T00:30:17;5.32;;;4.45;;
51244;SDS011;37840;47.562;18.738;2023-09-19T00:32:47;7.20;;;5.32;;
51244;SDS011;37840;47.562;18.738;2023-09-19T00:35:15;8.75;;;5.55;;
51244;SDS011;37840;47.562;18.738;2023-09-19T00:37:41;11.10;;;5.97;;
51244;SDS011;37840;47.562;18.738;2023-09-19T00:40:08;5.78;;;5.00;;
51244;SDS011;37840;47.562;18.738;2023-09-19T00:42:41;8.10;;;5.47;;
51244;SDS011;37840;47.562;18.738;2023-09-19T00:45:14;7.32;;;5.60;;
51244;SDS011;37840;47.562;18.738;2023-09-19T00:47:42;6.28;;;5.40;;
51244;SDS011;37840;47.562;18.738;2023-09-19T00:50:11;9.07;;;5.70;;
51244;SDS011;37840;47.562;18.738;2023-09-19T00:52:40;7.87;;;5.55;;
51244;SDS011;37840;47.562;18.738;2023-09-19T00:55:08;10.25;;;5.95;;
51244;SDS011;37840;47.562;18.738;2023-09-19T00:57:35;9.95;;;5.60;;
51244;SDS011;37840;47.562;18.738;2023-09-19T01:00:04;8.15;;;5.55;;
51244;SDS011;37840;47.562;18.738;2023-09-19T01:02:32;9.50;;;5.72;;
51244;SDS011;37840;47.562;18.738;2023-09-19T01:04:59;7.55;;;5.75;;
51244;SDS011;37840;47.562;18.738;2023-09-19T01:07:26;9.55;;;6.20;;
51244;SDS011;37840;47.562;18.738;2023-09-19T01:09:56;8.27;;;5.70;;
51244;SDS011;37840;47.562;18.738;2023-09-19T01:12:30;11.70;;;5.80;;
51244;SDS011;37840;47.562;18.738;2023-09-19T01:15:11;8.05;;;5.62;;
51244;SDS011;37840;47.562;18.738;2023-09-19T01:18:35;7.03;;;5.50;;
51244;SDS011;37840;47.562;18.738;2023-09-19T01:23:23;7.15;;;5.87;;
51244;SDS011;37840;47.562;18.738;2023-09-19T01:25:56;7.25;;;5.65;;
51244;SDS011;37840;47.562;18.738;2023-09-19T01:31:09;6.37;;;5.78;;
51244;SDS011;37840;47.562;18.738;2023-09-19T01:36:27;8.35;;;5.57;;
51244;SDS011;37840;47.562;18.738;2023-09-19T01:38:54;8.95;;;5.45;;
51244;SDS011;37840;47.562;18.738;2023-09-19T01:41:28;9.93;;;5.80;;
51244;SDS011;37840;47.562;18.738;2023-09-19T01:44:04;9.65;;;6.30;;
51244;SDS011;37840;47.562;18.738;2023-09-19T01:46:34;7.40;;;5.97;;
51244;SDS011;37840;47.562;18.738;2023-09-19T01:51:56;7.70;;;5.43;;
51244;SDS011;37840;47.562;18.738;2023-09-19T01:54:33;6.82;;;5.68;;
51244;SDS011;37840;47.562;18.738;2023-09-19T01:59:54;7.97;;;5.30;;
51244;SDS011;37840;47.562;18.738;2023-09-19T02:02:26;6.80;;;5.70;;
51244;SDS011;37840;47.562;18.738;2023-09-19T02:04:54;6.30;;;5.70;;
51244;SDS011;37840;47.562;18.738;2023-09-19T02:07:20;11.60;;;5.70;;
51244;SDS011;37840;47.562;18.738;2023-09-19T02:09:46;6.68;;;5.57;;
51244;SDS011;37840;47.562;18.738;2023-09-19T02:12:13;6.78;;;5.50;;
51244;SDS011;37840;47.562;18.738;2023-09-19T02:14:40;6.65;;;5.55;;
51244;SDS011;37840;47.562;18.738;2023-09-19T02:17:06;7.85;;;5.32;;
51244;SDS011;37840;47.562;18.738;2023-09-19T02:19:33;7.65;;;4.87;;
51244;SDS011;37840;47.562;18.738;2023-09-19T02:21:59;8.43;;;4.78;;
51244;SDS011;37840;47.562;18.738;2023-09-19T02:24:28;5.50;;;4.60;;
51244;SDS011;37840;47.562;18.738;2023-09-19T02:26:54;6.60;;;5.15;;
51244;SDS011;37840;47.562;18.738;2023-09-19T02:29:22;7.07;;;5.00;;
51244;SDS011;37840;47.562;18.738;2023-09-19T02:31:48;7.03;;;5.07;;
51244;SDS011;37840;47.562;18.738;2023-09-19T02:34:14;7.55;;;5.10;;
51244;SDS011;37840;47.562;18.738;2023-09-19T02:36:42;9.05;;;6.37;;
51244;SDS011;37840;47.562;18.738;2023-09-19T02:39:09;6.97;;;5.85;;
51244;SDS011;37840;47.562;18.738;2023-09-19T02:41:36;9.07;;;5.95;;
51244;SDS011;37840;47.562;18.738;2023-09-19T02:44:02;9.75;;;6.18;;
51244;SDS011;37840;47.562;18.738;2023-09-19T02:46:32;8.38;;;6.05;;
51244;SDS011;37840;47.562;18.738;2023-09-19T02:49:02;10.38;;;6.35;;
51244;SDS011;37840;47.562;18.738;2023-09-19T02:51:32;11.30;;;6.25;;
51244;SDS011;37840;47.562;18.738;2023-09-19T02:53:59;9.90;;;6.12;;
51244;SDS011;37840;47.562;18.738;2023-09-19T02:56:25;9.10;;;6.05;;
51244;SDS011;37840;47.562;18.738;2023-09-19T02:58:52;9.73;;;6.00;;
51244;SDS011;37840;47.562;18.738;2023-09-19T03:01:18;8.57;;;6.95;;
51244;SDS011;37840;47.562;18.738;2023-09-19T03:03:44;8.57;;;6.43;;
51244;SDS011;37840;47.562;18.738;2023-09-19T03:06:11;9.30;;;6.50;;
51244;SDS011;37840;47.562;18.738;2023-09-19T03:08:38;10.70;;;6.18;;
51244;SDS011;37840;47.562;18.738;2023-09-19T03:11:05;9.15;;;6.43;;
51244;SDS011;37840;47.562;18.738;2023-09-19T03:13:33;9.18;;;5.85;;
51244;SDS011;37840;47.562;18.738;2023-09-19T03:15:59;6.12;;;5.15;;
51244;SDS011;37840;47.562;18.738;2023-09-19T03:18:25;7.87;;;6.12;;
51244;SDS011;37840;47.562;18.738;2023-09-19T03:20:55;6.93;;;6.18;;
51244;SDS011;37840;47.562;18.738;2023-09-19T03:23:22;11.97;;;5.50;;
51244;SDS011;37840;47.562;18.738;2023-09-19T03:25:48;10.98;;;6.10;;
51244;SDS011;37840;47.562;18.738;2023-09-19T03:28:14;7.85;;;4.82;;
51244;SDS011;37840;47.562;18.738;2023-09-19T03:30:41;7.57;;;3.90;;
51244;SDS011;37840;47.562;18.738;2023-09-19T03:33:07;4.90;;;2.35;;
51244;SDS011;37840;47.562;18.738;2023-09-19T03:35:33;2.08;;;1.58;;
51244;SDS011;37840;47.562;18.738;2023-09-19T03:38:00;6.72;;;1.73;;
51244;SDS011;37840;47.562;18.738;2023-09-19T03:40:26;2.62;;;1.60;;
51244;SDS011;37840;47.562;18.738;2023-09-19T03:42:52;2.83;;;1.48;;
51244;SDS011;37840;47.562;18.738;2023-09-19T03:45:18;2.22;;;1.65;;
51244;SDS011;37840;47.562;18.738;2023-09-19T03:47:44;3.62;;;1.20;;
51244;SDS011;37840;47.562;18.738;2023-09-19T03:50:12;3.25;;;1.30;;
51244;SDS011;37840;47.562;18.738;2023-09-19T03:52:45;2.60;;;1.10;;
51244;SDS011;37840;47.562;18.738;2023-09-19T03:55:11;3.70;;;1.10;;
51244;SDS011;37840;47.562;18.738;2023-09-19T03:57:37;5.68;;;1.35;;
51244;SDS011;37840;47.562;18.738;2023-09-19T04:00:04;2.15;;;1.00;;
51244;SDS011;37840;47.562;18.738;2023-09-19T04:02:37;3.37;;;1.20;;
51244;SDS011;37840;47.562;18.738;2023-09-19T04:05:04;1.50;;;1.02;;
51244;SDS011;37840;47.562;18.738;2023-09-19T04:07:33;2.65;;;1.27;;
51244;SDS011;37840;47.562;18.738;2023-09-19T04:10:00;1.75;;;1.15;;
51244;SDS011;37840;47.562;18.738;2023-09-19T04:12:25;2.03;;;1.08;;
51244;SDS011;37840;47.562;18.738;2023-09-19T04:14:51;4.78;;;1.10;;
51244;SDS011;37840;47.562;18.738;2023-09-19T04:17:17;1.40;;;0.77;;
51244;SDS011;37840;47.562;18.738;2023-09-19T04:19:44;1.65;;;0.90;;
51244;SDS011;37840;47.562;18.738;2023-09-19T04:22:11;2.35;;;1.12;;
51244;SDS011;37840;47.562;18.738;2023-09-19T04:24:38;2.20;;;0.70;;
51244;SDS011;37840;47.562;18.738;2023-09-19T04:27:04;1.15;;;0.70;;
51244;SDS011;37840;47.562;18.738;2023-09-19T04:29:30;1.20;;;0.70;;
51244;SDS011;37840;47.562;18.738;2023-09-19T04:31:57;1.15;;;0.77;;
51244;SDS011;37840;47.562;18.738;2023-09-19T04:34:23;2.45;;;0.75;;
51244;SDS011;37840;47.562;18.738;2023-09-19T04:36:50;1.45;;;0.55;;
51244;SDS011;37840;47.562;18.738;2023-09-19T04:39:16;1.25;;;0.70;;
51244;SDS011;37840;47.562;18.738;2023-09-19T04:41:43;0.90;;;0.60;;
51244;SDS011;37840;47.562;18.738;2023-09-19T04:44:10;0.98;;;0.47;;
51244;SDS011;37840;47.562;18.738;2023-09-19T04:46:36;1.45;;;0.57;;
51244;SDS011;37840;47.562;18.738;2023-09-19T04:49:02;1.10;;;0.60;;
51244;SDS011;37840;47.562;18.738;2023-09-19T04:51:28;2.45;;;0.47;;
51244;SDS011;37840;47.562;18.738;2023-09-19T04:53:58;2.78;;;0.68;;
51244;SDS011;37840;47.562;18.738;2023-09-19T04:56:24;2.42;;;0.62;;
51244;SDS011;37840;47.562;18.738;2023-09-19T04:58:50;1.45;;;0.82;;
51244;SDS011;37840;47.562;18.738;2023-09-19T05:01:16;1.08;;;0.50;;
51244;SDS011;37840;47.562;18.738;2023-09-19T05:03:43;0.77;;;0.50;;
51244;SDS011;37840;47.562;18.738;2023-09-19T05:06:10;4.82;;;0.60;;
51244;SDS011;37840;47.562;18.738;2023-09-19T05:08:36;1.27;;;0.43;;
51244;SDS011;37840;47.562;18.738;2023-09-19T05:11:02;1.10;;;0.70;;
51244;SDS011;37840;47.562;18.738;2023-09-19T05:13:28;0.60;;;0.50;;
51244;SDS011;37840;47.562;18.738;2023-09-19T05:15:54;2.50;;;0.60;;
51244;SDS011;37840;47.562;18.738;2023-09-19T05:18:20;1.05;;;0.50;;
51244;SDS011;37840;47.562;18.738;2023-09-19T05:20:47;1.52;;;0.62;;
51244;SDS011;37840;47.562;18.738;2023-09-19T05:23:15;1.05;;;0.50;;
51244;SDS011;37840;47.562;18.738;2023-09-19T05:25:41;1.00;;;0.60;;
51244;SDS011;37840;47.562;18.738;2023-09-19T05:28:09;0.80;;;0.50;;
51244;SDS011;37840;47.562;18.738;2023-09-19T05:30:37;1.08;;;0.52;;
51244;SDS011;37840;47.562;18.738;2023-09-19T05:33:06;1.20;;;0.60;;
51244;SDS011;37840;47.562;18.738;2023-09-19T05:35:33;0.93;;;0.50;;
51244;SDS011;37840;47.562;18.738;2023-09-19T05:37:59;0.90;;;0.50;;
51244;SDS011;37840;47.562;18.738;2023-09-19T05:40:25;1.35;;;0.60;;
51244;SDS011;37840;47.562;18.738;2023-09-19T05:42:52;0.80;;;0.50;;
51244;SDS011;37840;47.562;18.738;2023-09-19T05:45:18;1.33;;;0.73;;
51244;SDS011;37840;47.562;18.738;2023-09-19T05:47:48;2.08;;;0.82;;
51244;SDS011;37840;47.562;18.738;2023-09-19T05:50:15;2.03;;;0.68;;
51244;SDS011;37840;47.562;18.738;2023-09-19T05:52:42;2.35;;;0.70;;
51244;SDS011;37840;47.562;18.738;2023-09-19T05:55:11;1.60;;;0.60;;
51244;SDS011;37840;47.562;18.738;2023-09-19T05:57:37;2.50;;;0.75;;
51244;SDS011;37840;47.562;18.738;2023-09-19T06:00:08;3.22;;;0.70;;
51244;SDS011;37840;47.562;18.738;2023-09-19T06:02:36;1.52;;;0.70;;
51244;SDS011;37840;47.562;18.738;2023-09-19T06:05:06;0.85;;;0.65;;
51244;SDS011;37840;47.562;18.738;2023-09-19T06:07:36;1.35;;;0.70;;
51244;SDS011;37840;47.562;18.738;2023-09-19T06:10:06;1.75;;;0.73;;
51244;SDS011;37840;47.562;18.738;2023-09-19T06:12:38;2.60;;;0.70;;
51244;SDS011;37840;47.562;18.738;2023-09-19T06:15:05;1.77;;;0.70;;
51244;SDS011;37840;47.562;18.738;2023-09-19T06:17:34;1.42;;;0.50;;
51244;SDS011;37840;47.562;18.738;2023-09-19T06:20:06;1.08;;;0.50;;
51244;SDS011;37840;47.562;18.738;2023-09-19T06:22:40;0.57;;;0.40;;
51244;SDS011;37840;47.562;18.738;2023-09-19T06:27:38;1.20;;;0.57;;
51244;SDS011;37840;47.562;18.738;2023-09-19T06:30:08;1.60;;;0.50;;
51244;SDS011;37840;47.562;18.738;2023-09-19T06:32:39;1.20;;;0.70;;
51244;SDS011;37840;47.562;18.738;2023-09-19T06:35:13;1.35;;;0.47;;
51244;SDS011;37840;47.562;18.738;2023-09-19T06:40:07;2.08;;;0.50;;
51244;SDS011;37840;47.562;18.738;2023-09-19T06:42:40;0.57;;;0.40;;
51244;SDS011;37840;47.562;18.738;2023-09-19T06:45:13;1.05;;;0.47;;
51244;SDS011;37840;47.562;18.738;2023-09-19T06:47:43;1.73;;;0.57;;
51244;SDS011;37840;47.562;18.738;2023-09-19T06:50:11;1.37;;;0.45;;
51244;SDS011;37840;47.562;18.738;2023-09-19T06:52:40;2.03;;;0.70;;
51244;SDS011;37840;47.562;18.738;2023-09-19T06:55:07;1.70;;;0.65;;
51244;SDS011;37840;47.562;18.738;2023-09-19T06:57:35;1.33;;;0.52;;
51244;SDS011;37840;47.562;18.738;2023-09-19T07:00:01;2.20;;;0.80;;
51244;SDS011;37840;47.562;18.738;2023-09-19T07:02:28;1.40;;;0.70;;
51244;SDS011;37840;47.562;18.738;2023-09-19T07:04:54;1.73;;;0.70;;
51244;SDS011;37840;47.562;18.738;2023-09-19T07:07:20;2.35;;;0.70;;
51244;SDS011;37840;47.562;18.738;2023-09-19T07:09:45;1.75;;;0.85;;
51244;SDS011;37840;47.562;18.738;2023-09-19T07:12:14;1.77;;;0.65;;
51244;SDS011;37840;47.562;18.738;2023-09-19T07:14:40;1.08;;;0.70;;
51244;SDS011;37840;47.562;18.738;2023-09-19T07:17:06;1.10;;;0.50;;
51244;SDS011;37840;47.562;18.738;2023-09-19T07:19:32;1.42;;;0.75;;
51244;SDS011;37840;47.562;18.738;2023-09-19T07:21:58;2.03;;;0.77;;
51244;SDS011;37840;47.562;18.738;2023-09-19T07:24:28;1.40;;;0.90;;
51244;SDS011;37840;47.562;18.738;2023-09-19T07:26:55;1.55;;;0.60;;
51244;SDS011;37840;47.562;18.738;2023-09-19T07:29:21;1.40;;;0.80;;
51244;SDS011;37840;47.562;18.738;2023-09-19T07:31:47;3.37;;;0.60;;
51244;SDS011;37840;47.562;18.738;2023-09-19T07:34:13;1.55;;;0.80;;
51244;SDS011;37840;47.562;18.738;2023-09-19T07:36:39;2.45;;;0.65;;
51244;SDS011;37840;47.562;18.738;2023-09-19T07:39:07;1.67;;;0.70;;
51244;SDS011;37840;47.562;18.738;2023-09-19T07:41:33;1.20;;;0.77;;
51244;SDS011;37840;47.562;18.738;2023-09-19T07:43:59;1.33;;;0.62;;
51244;SDS011;37840;47.562;18.738;2023-09-19T07:46:25;1.00;;;0.62;;
51244;SDS011;37840;47.562;18.738;2023-09-19T07:48:51;1.77;;;0.70;;
51244;SDS011;37840;47.562;18.738;2023-09-19T07:51:17;1.62;;;0.70;;
51244;SDS011;37840;47.562;18.738;2023-09-19T07:53:44;2.10;;;0.68;;
51244;SDS011;37840;47.562;18.738;2023-09-19T07:56:10;1.33;;;0.80;;
51244;SDS011;37840;47.562;18.738;2023-09-19T07:58:38;2.75;;;0.70;;
51244;SDS011;37840;47.562;18.738;2023-09-19T08:01:06;1.65;;;0.82;;
51244;SDS011;37840;47.562;18.738;2023-09-19T08:03:33;1.48;;;0.70;;
51244;SDS011;37840;47.562;18.738;2023-09-19T08:06:01;1.40;;;0.70;;
51244;SDS011;37840;47.562;18.738;2023-09-19T08:08:27;1.35;;;0.68;;
51244;SDS011;37840;47.562;18.738;2023-09-19T08:10:53;1.37;;;0.60;;
51244;SDS011;37840;47.562;18.738;2023-09-19T08:13:25;0.90;;;0.60;;
51244;SDS011;37840;47.562;18.738;2023-09-19T08:15:51;1.73;;;0.80;;
51244;SDS011;37840;47.562;18.738;2023-09-19T08:18:19;1.92;;;0.65;;
51244;SDS011;37840;47.562;18.738;2023-09-19T08:20:50;1.25;;;0.80;;
51244;SDS011;37840;47.562;18.738;2023-09-19T08:23:17;2.30;;;0.75;;
51244;SDS011;37840;47.562;18.738;2023-09-19T08:26:19;1.90;;;0.90;;
51244;SDS011;37840;47.562;18.738;2023-09-19T08:28:37;1.45;;;0.70;;
51244;SDS011;37840;47.562;18.738;2023-09-19T08:31:06;1.05;;;0.70;;
51244;SDS011;37840;47.562;18.738;2023-09-19T08:33:44;1.08;;;0.70;;
51244;SDS011;37840;47.562;18.738;2023-09-19T08:36:17;1.27;;;0.80;;
51244;SDS011;37840;47.562;18.738;2023-09-19T08:38:43;2.17;;;0.90;;
51244;SDS011;37840;47.562;18.738;2023-09-19T08:41:09;2.10;;;0.82;;
51244;SDS011;37840;47.562;18.738;2023-09-19T08:43:35;2.35;;;1.00;;
51244;SDS011;37840;47.562;18.738;2023-09-19T08:46:09;2.20;;;0.90;;
51244;SDS011;37840;47.562;18.738;2023-09-19T08:48:44;1.65;;;0.77;;
51244;SDS011;37840;47.562;18.738;2023-09-19T08:57:36;1.87;;;0.95;;
51244;SDS011;37840;47.562;18.738;2023-09-19T09:00:09;1.73;;;1.10;;
51244;SDS011;37840;47.562;18.738;2023-09-19T09:08:18;1.62;;;1.00;;
51244;SDS011;37840;47.562;18.738;2023-09-19T09:10:45;1.90;;;1.20;;
51244;SDS011;37840;47.562;18.738;2023-09-19T09:13:11;1.45;;;1.25;;
51244;SDS011;37840;47.562;18.738;2023-09-19T09:15:39;2.65;;;1.37;;
51244;SDS011;37840;47.562;18.738;2023-09-19T09:18:06;1.75;;;1.20;;
51244;SDS011;37840;47.562;18.738;2023-09-19T09:20:32;1.77;;;1.37;;
51244;SDS011;37840;47.562;18.738;2023-09-19T09:22:58;1.50;;;1.30;;
51244;SDS011;37840;47.562;18.738;2023-09-19T09:28:28;2.53;;;2.08;;
51244;SDS011;37840;47.562;18.738;2023-09-19T09:30:56;3.25;;;2.20;;
51244;SDS011;37840;47.562;18.738;2023-09-19T09:33:33;2.60;;;2.40;;
51244;SDS011;37840;47.562;18.738;2023-09-19T09:36:01;3.67;;;2.87;;
51244;SDS011;37840;47.562;18.738;2023-09-19T09:38:29;3.83;;;3.20;;
51244;SDS011;37840;47.562;18.738;2023-09-19T09:41:09;3.50;;;3.20;;
51244;SDS011;37840;47.562;18.738;2023-09-19T09:43:36;4.25;;;3.30;;
51244;SDS011;37840;47.562;18.738;2023-09-19T09:49:07;3.42;;;3.12;;
51244;SDS011;37840;47.562;18.738;2023-09-19T09:51:51;3.97;;;3.55;;
51244;SDS011;37840;47.562;18.738;2023-09-19T09:54:25;4.55;;;3.97;;
51244;SDS011;37840;47.562;18.738;2023-09-19T09:57:05;3.15;;;2.92;;
51244;SDS011;37840;47.562;18.738;2023-09-19T09:59:53;3.10;;;2.87;;
51244;SDS011;37840;47.562;18.738;2023-09-19T10:05:14;3.30;;;3.00;;
51244;SDS011;37840;47.562;18.738;2023-09-19T10:07:54;2.92;;;2.72;;
51244;SDS011;37840;47.562;18.738;2023-09-19T10:10:30;3.10;;;2.50;;
51244;SDS011;37840;47.562;18.738;2023-09-19T10:13:08;2.50;;;2.15;;
51244;SDS011;37840;47.562;18.738;2023-09-19T10:15:39;2.35;;;2.15;;
51244;SDS011;37840;47.562;18.738;2023-09-19T10:18:34;4.07;;;1.83;;
51244;SDS011;37840;47.562;18.738;2023-09-19T10:21:04;2.78;;;1.60;;
51244;SDS011;37840;47.562;18.738;2023-09-19T10:23:32;1.65;;;1.40;;
51244;SDS011;37840;47.562;18.738;2023-09-19T10:25:59;2.17;;;1.70;;
51244;SDS011;37840;47.562;18.738;2023-09-19T10:28:27;2.87;;;1.65;;
51244;SDS011;37840;47.562;18.738;2023-09-19T10:30:56;2.33;;;1.60;;
51244;SDS011;37840;47.562;18.738;2023-09-19T10:33:24;1.60;;;1.50;;
51244;SDS011;37840;47.562;18.738;2023-09-19T10:35:55;1.85;;;1.15;;
51244;SDS011;37840;47.562;18.738;2023-09-19T10:38:25;2.60;;;1.20;;
51244;SDS011;37840;47.562;18.738;2023-09-19T10:40:54;1.33;;;1.02;;
51244;SDS011;37840;47.562;18.738;2023-09-19T10:43:25;2.90;;;1.23;;
51244;SDS011;37840;47.562;18.738;2023-09-19T10:48:25;1.12;;;0.73;;
51244;SDS011;37840;47.562;18.738;2023-09-19T10:53:46;1.65;;;1.10;;
51244;SDS011;37840;47.562;18.738;2023-09-19T10:56:18;0.88;;;0.77;;
51244;SDS011;37840;47.562;18.738;2023-09-19T10:58:49;2.97;;;0.85;;
51244;SDS011;37840;47.562;18.738;2023-09-19T11:01:15;1.40;;;0.90;;
51244;SDS011;37840;47.562;18.738;2023-09-19T11:03:42;1.37;;;0.80;;
51244;SDS011;37840;47.562;18.738;2023-09-19T11:06:09;2.35;;;0.95;;
51244;SDS011;37840;47.562;18.738;2023-09-19T11:08:51;1.00;;;0.70;;
51244;SDS011;37840;47.562;18.738;2023-09-19T11:11:48;1.40;;;1.00;;
51244;SDS011;37840;47.562;18.738;2023-09-19T11:30:39;2.30;;;1.17;;
51244;SDS011;37840;47.562;18.738;2023-09-19T11:41:57;2.22;;;1.12;;
51244;SDS011;37840;47.562;18.738;2023-09-19T11:49:18;3.47;;;1.58;;
51244;SDS011;37840;47.562;18.738;2023-09-19T11:51:52;1.33;;;0.95;;
51244;SDS011;37840;47.562;18.738;2023-09-19T11:54:18;2.00;;;1.10;;
51244;SDS011;37840;47.562;18.738;2023-09-19T11:56:53;2.00;;;1.12;;
51244;SDS011;37840;47.562;18.738;2023-09-19T11:59:21;1.85;;;0.90;;
51244;SDS011;37840;47.562;18.738;2023-09-19T12:01:51;2.30;;;1.20;;
51244;SDS011;37840;47.562;18.738;2023-09-19T12:04:42;2.00;;;1.00;;
51244;SDS011;37840;47.562;18.738;2023-09-19T12:07:11;1.73;;;1.20;;
51244;SDS011;37840;47.562;18.738;2023-09-19T12:09:42;2.92;;;1.23;;
51244;SDS011;37840;47.562;18.738;2023-09-19T12:12:27;2.15;;;1.02;;
51244;SDS011;37840;47.562;18.738;2023-09-19T12:14:54;1.80;;;1.15;;
51244;SDS011;37840;47.562;18.738;2023-09-19T12:17:22;1.42;;;0.90;;
51244;SDS011;37840;47.562;18.738;2023-09-19T12:19:53;2.40;;;1.10;;
51244;SDS011;37840;47.562;18.738;2023-09-19T12:22:21;1.52;;;1.10;;
51244;SDS011;37840;47.562;18.738;2023-09-19T12:24:47;1.77;;;1.20;;
51244;SDS011;37840;47.562;18.738;2023-09-19T12:27:13;1.58;;;0.93;;
51244;SDS011;37840;47.562;18.738;2023-09-19T12:29:47;1.37;;;0.90;;
51244;SDS011;37840;47.562;18.738;2023-09-19T12:32:36;3.17;;;0.90;;
51244;SDS011;37840;47.562;18.738;2023-09-19T12:35:06;2.22;;;1.15;;
51244;SDS011;37840;47.562;18.738;2023-09-19T12:37:45;1.80;;;1.10;;
51244;SDS011;37840;47.562;18.738;2023-09-19T12:40:18;1.58;;;1.08;;
51244;SDS011;37840;47.562;18.738;2023-09-19T12:43:08;1.95;;;1.05;;
51244;SDS011;37840;47.562;18.738;2023-09-19T12:45:40;1.50;;;0.98;;
51244;SDS011;37840;47.562;18.738;2023-09-19T12:48:24;1.58;;;1.02;;
51244;SDS011;37840;47.562;18.738;2023-09-19T12:51:04;1.60;;;1.00;;
51244;SDS011;37840;47.562;18.738;2023-09-19T12:53:45;1.95;;;1.20;;
51244;SDS011;37840;47.562;18.738;2023-09-19T12:56:14;1.30;;;0.80;;
51244;SDS011;37840;47.562;18.738;2023-09-19T12:58:51;3.95;;;1.12;;
51244;SDS011;37840;47.562;18.738;2023-09-19T13:01:19;2.33;;;1.20;;
51244;SDS011;37840;47.562;18.738;2023-09-19T13:03:45;2.75;;;0.90;;
51244;SDS011;37840;47.562;18.738;2023-09-19T13:06:11;2.05;;;1.10;;
51244;SDS011;37840;47.562;18.738;2023-09-19T13:08:38;1.52;;;0.90;;
51244;SDS011;37840;47.562;18.738;2023-09-19T13:11:11;3.42;;;0.90;;
51244;SDS011;37840;47.562;18.738;2023-09-19T13:16:05;2.00;;;0.90;;
51244;SDS011;37840;47.562;18.738;2023-09-19T13:18:44;1.58;;;0.82;;
51244;SDS011;37840;47.562;18.738;2023-09-19T13:21:32;2.92;;;1.02;;
51244;SDS011;37840;47.562;18.738;2023-09-19T13:24:20;1.67;;;0.90;;
51244;SDS011;37840;47.562;18.738;2023-09-19T13:26:48;3.12;;;1.00;;
51244;SDS011;37840;47.562;18.738;2023-09-19T13:29:15;1.62;;;0.90;;
51244;SDS011;37840;47.562;18.738;2023-09-19T13:31:47;1.87;;;1.00;;
51244;SDS011;37840;47.562;18.738;2023-09-19T13:34:14;2.10;;;1.10;;
51244;SDS011;37840;47.562;18.738;2023-09-19T13:36:44;3.70;;;1.10;;
51244;SDS011;37840;47.562;18.738;2023-09-19T13:39:10;1.92;;;1.15;;
51244;SDS011;37840;47.562;18.738;2023-09-19T13:41:38;1.20;;;0.98;;
51244;SDS011;37840;47.562;18.738;2023-09-19T13:44:04;2.12;;;0.90;;
51244;SDS011;37840;47.562;18.738;2023-09-19T13:46:31;1.67;;;0.98;;
51244;SDS011;37840;47.562;18.738;2023-09-19T13:49:00;1.40;;;0.88;;
51244;SDS011;37840;47.562;18.738;2023-09-19T13:51:29;1.83;;;0.82;;
51244;SDS011;37840;47.562;18.738;2023-09-19T13:53:56;3.03;;;1.10;;
51244;SDS011;37840;47.562;18.738;2023-09-19T13:56:22;1.37;;;0.93;;
51244;SDS011;37840;47.562;18.738;2023-09-19T13:58:48;1.65;;;1.00;;
51244;SDS011;37840;47.562;18.738;2023-09-19T14:01:14;1.45;;;1.08;;
51244;SDS011;37840;47.562;18.738;2023-09-19T14:03:41;2.45;;;1.20;;
51244;SDS011;37840;47.562;18.738;2023-09-19T14:06:15;1.83;;;0.90;;
51244;SDS011;37840;47.562;18.738;2023-09-19T14:08:41;1.35;;;1.12;;
51244;SDS011;37840;47.562;18.738;2023-09-19T14:11:08;1.23;;;0.90;;
51244;SDS011;37840;47.562;18.738;2023-09-19T14:13:34;1.55;;;1.20;;
51244;SDS011;37840;47.562;18.738;2023-09-19T14:16:03;2.00;;;1.08;;
51244;SDS011;37840;47.562;18.738;2023-09-19T14:18:31;2.03;;;1.10;;
51244;SDS011;37840;47.562;18.738;2023-09-19T14:20:57;1.75;;;1.15;;
51244;SDS011;37840;47.562;18.738;2023-09-19T14:23:23;3.05;;;1.20;;
51244;SDS011;37840;47.562;18.738;2023-09-19T14:25:52;3.37;;;1.20;;
51244;SDS011;37840;47.562;18.738;2023-09-19T14:28:19;2.65;;;1.25;;
51244;SDS011;37840;47.562;18.738;2023-09-19T14:31:19;3.65;;;1.10;;
51244;SDS011;37840;47.562;18.738;2023-09-19T14:33:43;1.60;;;1.00;;
51244;SDS011;37840;47.562;18.738;2023-09-19T14:36:09;2.25;;;1.15;;
51244;SDS011;37840;47.562;18.738;2023-09-19T14:38:36;2.17;;;1.10;;
51244;SDS011;37840;47.562;18.738;2023-09-19T14:41:03;1.70;;;1.08;;
51244;SDS011;37840;47.562;18.738;2023-09-19T14:43:31;2.53;;;1.17;;
51244;SDS011;37840;47.562;18.738;2023-09-19T14:46:04;1.90;;;0.95;;
51244;SDS011;37840;47.562;18.738;2023-09-19T14:48:33;1.48;;;0.93;;
51244;SDS011;37840;47.562;18.738;2023-09-19T14:51:03;1.25;;;0.93;;
51244;SDS011;37840;47.562;18.738;2023-09-19T14:53:30;2.35;;;1.20;;
51244;SDS011;37840;47.562;18.738;2023-09-19T14:55:57;1.40;;;1.15;;
51244;SDS011;37840;47.562;18.738;2023-09-19T14:58:26;2.08;;;1.00;;
51244;SDS011;37840;47.562;18.738;2023-09-19T15:01:05;1.83;;;1.00;;
51244;SDS011;37840;47.562;18.738;2023-09-19T15:03:33;1.73;;;1.00;;
51244;SDS011;37840;47.562;18.738;2023-09-19T15:06:01;2.85;;;1.12;;
51244;SDS011;37840;47.562;18.738;2023-09-19T15:08:28;2.40;;;0.90;;
51244;SDS011;37840;47.562;18.738;2023-09-19T15:10:54;1.10;;;0.80;;
51244;SDS011;37840;47.562;18.738;2023-09-19T15:13:21;2.60;;;0.90;;
51244;SDS011;37840;47.562;18.738;2023-09-19T15:15:47;1.33;;;1.00;;
51244;SDS011;37840;47.562;18.738;2023-09-19T15:18:13;1.87;;;0.93;;
51244;SDS011;37840;47.562;18.738;2023-09-19T15:20:45;1.15;;;0.82;;
51244;SDS011;37840;47.562;18.738;2023-09-19T15:30:02;1.30;;;0.82;;
51244;SDS011;37840;47.562;18.738;2023-09-19T15:32:28;1.98;;;1.10;;
51244;SDS011;37840;47.562;18.738;2023-09-19T15:34:57;4.80;;;1.20;;
51244;SDS011;37840;47.562;18.738;2023-09-19T15:37:23;4.43;;;1.37;;
51244;SDS011;37840;47.562;18.738;2023-09-19T16:23:39;2.15;;;0.93;;
51244;SDS011;37840;47.562;18.738;2023-09-19T16:39:40;2.37;;;0.90;;
51244;SDS011;37840;47.562;18.738;2023-09-19T16:42:22;2.92;;;0.98;;
51244;SDS011;37840;47.562;18.738;2023-09-19T16:44:48;1.90;;;1.17;;
51244;SDS011;37840;47.562;18.738;2023-09-19T16:47:14;1.35;;;1.02;;
51244;SDS011;37840;47.562;18.738;2023-09-19T16:49:40;1.27;;;0.93;;
51244;SDS011;37840;47.562;18.738;2023-09-19T16:52:07;1.98;;;0.98;;
51244;SDS011;37840;47.562;18.738;2023-09-19T16:54:32;1.98;;;0.98;;
51244;SDS011;37840;47.562;18.738;2023-09-19T16:57:00;1.42;;;1.23;;
51244;SDS011;37840;47.562;18.738;2023-09-19T16:59:27;1.85;;;1.10;;
51244;SDS011;37840;47.562;18.738;2023-09-19T17:01:53;2.65;;;1.10;;
51244;SDS011;37840;47.562;18.738;2023-09-19T17:04:22;3.95;;;1.33;;
51244;SDS011;37840;47.562;18.738;2023-09-19T17:06:48;3.75;;;1.37;;
51244;SDS011;37840;47.562;18.738;2023-09-19T17:09:14;1.15;;;0.82;;